Jerozolima, Izrael

00:50 IDT dnia 20-wrzesień-2014 (GMT +0300)
Nayot | Change Station
CLOSE
Current Station
Stacja PWS
Location: Jerusalem, Israel
n.p.m.: 2415 ft
Najbliższa stacja pogodowa

Wysokość 2415 ft 31.77 °N, 35.20 °E | Updated 4 seconds ago

Clear
65.5 ° F
Odczuwalna 65.5 ° F
Płn.
0.0
Wiatr zmienny Wiatr od ZdPnZd
Gusts 2.0 mph

Dziś
Wysoka -- | Niska -- ° F
--% Prawdop. opadów
Wczoraj
Wysoka -- | Niska -- ° F
Precip. -- cali
6:25 AM 6:38 PM
Zmniejszający się sierp Księżyca, 16% visible
Ciśnienie 29.95 cali
Widzialność 6.2 mil
chmury obłoki zanikające 3500 ft
Punkt rosy 62 ° F
Wilgotność 90%
Opady deszczu 0.00 cali
grubość pokrywy śnieżnej Niedostępne.
UV 0.0 z 12
Pyłki Niedostępne.
Jakość powietrza Niedostępne.
Flu Activity Niedostępne.
METAR LLBG 192120Z VRB03KT 9999 SCT035 24/18 Q1014 NOSIG

More Conditions Fewer Conditions

Ciśnienie 29.95 cali
Widzialność 6.2 mil
chmury obłoki zanikające 3500 ft
Punkt rosy 62 ° F
Wilgotność 90%
Opady deszczu 0.00 cali
grubość pokrywy śnieżnej Niedostępne.
UV 0.0 z 12
Pyłki Niedostępne.
Jakość powietrza Niedostępne.
Flu Activity Niedostępne.
METAR LLBG 192120Z VRB03KT 9999 SCT035 24/18 Q1014 NOSIG

More Conditions Fewer Conditions

10-Day Weather Forecast

Almanac

Astronomia

Sep. 20, 2014 Wschód Zachów
Aktualny czas 06:25 IDT 18:38 IDT
Zmierzch cywilny 06:01 IDT 19:03 IDT
Zmierzch żeglarski 05:33 IDT 19:31 IDT
świt/zmierzch astronomiczny 05:04 IDT 20:00 IDT
Księżyc 02:56 IDT (9/20) 16:21 IDT (9/20)
całkowite oświetlenie 13h 01m
Długość dnia
12h 12m
Tomorrow will be 1m 57s shorter.
Zmniejszający się sierp Księżyca, 16% of the Moon is Illuminated
Wrzesień 19
Zmniejszający się sierp Księżyca
Wrzesień 24
Nowy
Październik 1
Pierwsza kwadra
Październik 8
Pełnia Księżyca
Październik 15
Ostatnia kwadra

Wczorajsze ekstrema

Country Highs Country Lows

Community

WunderPhotos

Upload Photos

1,754,703 zdjęcia zostały przesłane!

WunderBlogs® & News

By Dr. Jeff Masters
Director of Meteorology, Weather Underground
By Kari Strenfel
Meteorologist, Weather Underground
By Christopher C. Burt
Weather Historian, Weather Underground
September 19, 2014
September 19, 2014
September 19, 2014

Nearby

Jakość powietrza

Not available.

Głębokość pokrywy śnieżnej

Not available.

Aktywność sejsmiczna

Miejscowość Distance Mag. Time & Date
No recent earthquake activity has been reported nearby.
Minimum magnitude displayed is 2.5.

Temperatury wody na wybrzeżu

Miejsce Temperatura
Nie znaleziono stacji

Najbliższa stacja pogodowa